sensor_id;sensor_type;location;lat;lon;timestamp;P1;durP1;ratioP1;P2;durP2;ratioP2
55497;SDS011;41357;52.806;18.268;2023-07-31T00:00:03;3.83;;;1.40;;
55497;SDS011;41357;52.806;18.268;2023-07-31T00:02:30;1.95;;;1.30;;
55497;SDS011;41357;52.806;18.268;2023-07-31T00:04:57;4.07;;;1.20;;
55497;SDS011;41357;52.806;18.268;2023-07-31T00:07:23;3.50;;;1.42;;
55497;SDS011;41357;52.806;18.268;2023-07-31T00:09:49;2.83;;;1.33;;
55497;SDS011;41357;52.806;18.268;2023-07-31T00:12:15;3.40;;;1.10;;
55497;SDS011;41357;52.806;18.268;2023-07-31T00:14:41;3.20;;;1.40;;
55497;SDS011;41357;52.806;18.268;2023-07-31T00:17:07;1.83;;;1.23;;
55497;SDS011;41357;52.806;18.268;2023-07-31T00:19:33;6.28;;;1.40;;
55497;SDS011;41357;52.806;18.268;2023-07-31T00:21:59;1.48;;;1.23;;
55497;SDS011;41357;52.806;18.268;2023-07-31T00:24:26;7.85;;;1.40;;
55497;SDS011;41357;52.806;18.268;2023-07-31T00:26:52;2.97;;;1.38;;
55497;SDS011;41357;52.806;18.268;2023-07-31T00:29:18;6.15;;;1.75;;
55497;SDS011;41357;52.806;18.268;2023-07-31T00:31:44;4.05;;;1.65;;
55497;SDS011;41357;52.806;18.268;2023-07-31T00:34:10;6.88;;;1.42;;
55497;SDS011;41357;52.806;18.268;2023-07-31T00:36:36;3.83;;;1.45;;
55497;SDS011;41357;52.806;18.268;2023-07-31T00:39:02;3.33;;;1.30;;
55497;SDS011;41357;52.806;18.268;2023-07-31T00:41:29;2.67;;;1.45;;
55497;SDS011;41357;52.806;18.268;2023-07-31T00:43:55;6.28;;;1.20;;
55497;SDS011;41357;52.806;18.268;2023-07-31T00:46:22;2.00;;;1.38;;
55497;SDS011;41357;52.806;18.268;2023-07-31T00:48:48;2.08;;;1.30;;
55497;SDS011;41357;52.806;18.268;2023-07-31T00:51:14;3.63;;;1.40;;
55497;SDS011;41357;52.806;18.268;2023-07-31T00:53:41;2.80;;;1.80;;
55497;SDS011;41357;52.806;18.268;2023-07-31T00:56:08;1.90;;;1.25;;
55497;SDS011;41357;52.806;18.268;2023-07-31T00:58:34;5.05;;;2.05;;
55497;SDS011;41357;52.806;18.268;2023-07-31T01:01:00;3.17;;;1.40;;
55497;SDS011;41357;52.806;18.268;2023-07-31T01:03:27;3.40;;;1.73;;
55497;SDS011;41357;52.806;18.268;2023-07-31T01:08:24;3.63;;;1.85;;
55497;SDS011;41357;52.806;18.268;2023-07-31T01:10:56;3.30;;;1.55;;
55497;SDS011;41357;52.806;18.268;2023-07-31T01:13:24;4.63;;;1.92;;
55497;SDS011;41357;52.806;18.268;2023-07-31T01:15:50;4.32;;;1.98;;
55497;SDS011;41357;52.806;18.268;2023-07-31T01:18:17;3.80;;;2.03;;
55497;SDS011;41357;52.806;18.268;2023-07-31T01:20:43;7.63;;;2.15;;
55497;SDS011;41357;52.806;18.268;2023-07-31T01:26:03;3.05;;;1.77;;
55497;SDS011;41357;52.806;18.268;2023-07-31T01:28:49;4.07;;;1.83;;
55497;SDS011;41357;52.806;18.268;2023-07-31T01:31:18;4.07;;;2.00;;
55497;SDS011;41357;52.806;18.268;2023-07-31T01:33:46;2.88;;;1.88;;
55497;SDS011;41357;52.806;18.268;2023-07-31T01:36:12;3.92;;;2.33;;
55497;SDS011;41357;52.806;18.268;2023-07-31T01:38:39;2.47;;;1.70;;
55497;SDS011;41357;52.806;18.268;2023-07-31T01:41:05;4.18;;;2.00;;
55497;SDS011;41357;52.806;18.268;2023-07-31T01:43:31;5.40;;;2.10;;
55497;SDS011;41357;52.806;18.268;2023-07-31T01:46:00;14.90;;;3.53;;
55497;SDS011;41357;52.806;18.268;2023-07-31T01:48:27;4.18;;;2.10;;
55497;SDS011;41357;52.806;18.268;2023-07-31T01:50:53;6.72;;;2.35;;
55497;SDS011;41357;52.806;18.268;2023-07-31T01:53:19;4.45;;;1.83;;
55497;SDS011;41357;52.806;18.268;2023-07-31T01:55:45;5.03;;;2.20;;
55497;SDS011;41357;52.806;18.268;2023-07-31T01:58:11;3.78;;;2.00;;
55497;SDS011;41357;52.806;18.268;2023-07-31T02:00:37;3.70;;;2.03;;
55497;SDS011;41357;52.806;18.268;2023-07-31T02:03:03;2.00;;;1.55;;
55497;SDS011;41357;52.806;18.268;2023-07-31T02:05:29;4.05;;;1.77;;
55497;SDS011;41357;52.806;18.268;2023-07-31T02:07:55;3.45;;;2.30;;
55497;SDS011;41357;52.806;18.268;2023-07-31T02:10:22;3.58;;;2.00;;
55497;SDS011;41357;52.806;18.268;2023-07-31T02:12:48;4.57;;;1.92;;
55497;SDS011;41357;52.806;18.268;2023-07-31T02:15:15;3.50;;;2.13;;
55497;SDS011;41357;52.806;18.268;2023-07-31T02:17:41;3.97;;;2.10;;
55497;SDS011;41357;52.806;18.268;2023-07-31T02:20:07;6.38;;;2.35;;
55497;SDS011;41357;52.806;18.268;2023-07-31T02:22:36;6.43;;;2.17;;
55497;SDS011;41357;52.806;18.268;2023-07-31T02:25:02;3.67;;;2.50;;
55497;SDS011;41357;52.806;18.268;2023-07-31T02:27:28;6.40;;;2.17;;
55497;SDS011;41357;52.806;18.268;2023-07-31T02:29:54;7.50;;;2.35;;
55497;SDS011;41357;52.806;18.268;2023-07-31T02:32:20;3.70;;;2.08;;
55497;SDS011;41357;52.806;18.268;2023-07-31T02:34:46;6.10;;;2.28;;
55497;SDS011;41357;52.806;18.268;2023-07-31T02:37:12;3.08;;;1.95;;
55497;SDS011;41357;52.806;18.268;2023-07-31T02:39:38;5.32;;;2.35;;
55497;SDS011;41357;52.806;18.268;2023-07-31T02:42:04;7.93;;;2.90;;
55497;SDS011;41357;52.806;18.268;2023-07-31T02:44:31;3.72;;;2.28;;
55497;SDS011;41357;52.806;18.268;2023-07-31T02:46:57;6.20;;;2.60;;
55497;SDS011;41357;52.806;18.268;2023-07-31T02:49:23;3.92;;;2.05;;
55497;SDS011;41357;52.806;18.268;2023-07-31T02:51:49;4.65;;;2.30;;
55497;SDS011;41357;52.806;18.268;2023-07-31T02:54:15;7.82;;;2.67;;
55497;SDS011;41357;52.806;18.268;2023-07-31T02:56:41;7.55;;;3.33;;
55497;SDS011;41357;52.806;18.268;2023-07-31T02:59:07;3.55;;;2.30;;
55497;SDS011;41357;52.806;18.268;2023-07-31T03:01:33;5.28;;;2.47;;
55497;SDS011;41357;52.806;18.268;2023-07-31T03:04:00;4.10;;;2.40;;
55497;SDS011;41357;52.806;18.268;2023-07-31T03:06:26;5.28;;;2.97;;
55497;SDS011;41357;52.806;18.268;2023-07-31T03:08:52;3.53;;;2.22;;
55497;SDS011;41357;52.806;18.268;2023-07-31T03:11:19;3.60;;;2.55;;
55497;SDS011;41357;52.806;18.268;2023-07-31T03:13:45;3.92;;;2.58;;
55497;SDS011;41357;52.806;18.268;2023-07-31T03:16:11;4.85;;;2.30;;
55497;SDS011;41357;52.806;18.268;2023-07-31T03:18:37;6.50;;;2.80;;
55497;SDS011;41357;52.806;18.268;2023-07-31T03:21:04;5.55;;;2.70;;
55497;SDS011;41357;52.806;18.268;2023-07-31T03:23:30;4.90;;;2.47;;
55497;SDS011;41357;52.806;18.268;2023-07-31T03:26:00;5.82;;;2.13;;
55497;SDS011;41357;52.806;18.268;2023-07-31T03:28:28;5.30;;;2.30;;
55497;SDS011;41357;52.806;18.268;2023-07-31T03:30:54;7.28;;;3.47;;
55497;SDS011;41357;52.806;18.268;2023-07-31T03:33:20;3.55;;;2.15;;
55497;SDS011;41357;52.806;18.268;2023-07-31T03:35:46;4.85;;;2.45;;
55497;SDS011;41357;52.806;18.268;2023-07-31T03:38:12;7.30;;;3.20;;
55497;SDS011;41357;52.806;18.268;2023-07-31T03:40:38;5.70;;;2.95;;
55497;SDS011;41357;52.806;18.268;2023-07-31T03:43:05;4.38;;;2.28;;
55497;SDS011;41357;52.806;18.268;2023-07-31T03:45:31;4.88;;;2.58;;
55497;SDS011;41357;52.806;18.268;2023-07-31T03:47:57;6.65;;;2.78;;
55497;SDS011;41357;52.806;18.268;2023-07-31T03:50:24;9.68;;;2.78;;
55497;SDS011;41357;52.806;18.268;2023-07-31T03:52:50;4.20;;;2.83;;
55497;SDS011;41357;52.806;18.268;2023-07-31T03:55:16;7.50;;;2.60;;
55497;SDS011;41357;52.806;18.268;2023-07-31T03:57:43;6.32;;;2.60;;
55497;SDS011;41357;52.806;18.268;2023-07-31T04:00:09;8.13;;;3.25;;
55497;SDS011;41357;52.806;18.268;2023-07-31T04:02:35;5.63;;;2.92;;
55497;SDS011;41357;52.806;18.268;2023-07-31T04:05:01;6.57;;;2.60;;
55497;SDS011;41357;52.806;18.268;2023-07-31T04:07:27;4.22;;;2.70;;
55497;SDS011;41357;52.806;18.268;2023-07-31T04:09:54;5.38;;;2.80;;
55497;SDS011;41357;52.806;18.268;2023-07-31T04:12:20;3.70;;;2.67;;
55497;SDS011;41357;52.806;18.268;2023-07-31T04:14:46;3.72;;;2.80;;
55497;SDS011;41357;52.806;18.268;2023-07-31T04:17:12;5.40;;;3.20;;
55497;SDS011;41357;52.806;18.268;2023-07-31T04:19:38;4.72;;;2.72;;
55497;SDS011;41357;52.806;18.268;2023-07-31T04:22:04;4.97;;;2.92;;
55497;SDS011;41357;52.806;18.268;2023-07-31T04:24:30;4.97;;;2.78;;
55497;SDS011;41357;52.806;18.268;2023-07-31T04:26:57;5.25;;;2.42;;
55497;SDS011;41357;52.806;18.268;2023-07-31T04:29:23;4.65;;;2.35;;
55497;SDS011;41357;52.806;18.268;2023-07-31T04:31:49;5.63;;;2.58;;
55497;SDS011;41357;52.806;18.268;2023-07-31T04:34:15;3.60;;;2.42;;
55497;SDS011;41357;52.806;18.268;2023-07-31T04:36:41;5.45;;;2.25;;
55497;SDS011;41357;52.806;18.268;2023-07-31T04:39:07;6.78;;;3.08;;
55497;SDS011;41357;52.806;18.268;2023-07-31T04:41:33;4.10;;;2.83;;
55497;SDS011;41357;52.806;18.268;2023-07-31T04:43:59;6.70;;;2.58;;
55497;SDS011;41357;52.806;18.268;2023-07-31T04:46:25;4.90;;;2.85;;
55497;SDS011;41357;52.806;18.268;2023-07-31T04:48:52;4.38;;;2.50;;
55497;SDS011;41357;52.806;18.268;2023-07-31T04:51:18;6.00;;;2.65;;
55497;SDS011;41357;52.806;18.268;2023-07-31T04:53:44;5.43;;;2.53;;
55497;SDS011;41357;52.806;18.268;2023-07-31T04:56:10;7.35;;;2.72;;
55497;SDS011;41357;52.806;18.268;2023-07-31T04:58:36;5.63;;;2.20;;
55497;SDS011;41357;52.806;18.268;2023-07-31T05:01:02;8.07;;;2.88;;
55497;SDS011;41357;52.806;18.268;2023-07-31T05:03:28;4.13;;;2.60;;
55497;SDS011;41357;52.806;18.268;2023-07-31T05:05:54;9.45;;;3.42;;
55497;SDS011;41357;52.806;18.268;2023-07-31T05:08:20;5.47;;;2.90;;
55497;SDS011;41357;52.806;18.268;2023-07-31T05:10:47;7.30;;;3.28;;
55497;SDS011;41357;52.806;18.268;2023-07-31T05:13:13;6.35;;;2.55;;
55497;SDS011;41357;52.806;18.268;2023-07-31T05:15:40;8.75;;;2.78;;
55497;SDS011;41357;52.806;18.268;2023-07-31T05:18:07;6.07;;;2.50;;
55497;SDS011;41357;52.806;18.268;2023-07-31T05:20:33;6.57;;;3.10;;
55497;SDS011;41357;52.806;18.268;2023-07-31T05:22:59;5.22;;;2.63;;
55497;SDS011;41357;52.806;18.268;2023-07-31T05:25:25;6.97;;;2.80;;
55497;SDS011;41357;52.806;18.268;2023-07-31T05:27:51;5.38;;;2.65;;
55497;SDS011;41357;52.806;18.268;2023-07-31T05:30:17;6.03;;;2.70;;
55497;SDS011;41357;52.806;18.268;2023-07-31T05:32:43;6.00;;;2.90;;
55497;SDS011;41357;52.806;18.268;2023-07-31T05:35:09;10.02;;;2.72;;
55497;SDS011;41357;52.806;18.268;2023-07-31T05:37:35;8.20;;;2.80;;
55497;SDS011;41357;52.806;18.268;2023-07-31T05:40:01;5.32;;;2.60;;
55497;SDS011;41357;52.806;18.268;2023-07-31T05:42:27;5.10;;;2.03;;
55497;SDS011;41357;52.806;18.268;2023-07-31T05:44:54;2.83;;;2.00;;
55497;SDS011;41357;52.806;18.268;2023-07-31T05:47:20;7.78;;;2.47;;
55497;SDS011;41357;52.806;18.268;2023-07-31T05:49:46;4.85;;;2.13;;
55497;SDS011;41357;52.806;18.268;2023-07-31T05:52:12;7.18;;;2.78;;
55497;SDS011;41357;52.806;18.268;2023-07-31T05:54:38;4.20;;;1.95;;
55497;SDS011;41357;52.806;18.268;2023-07-31T05:57:04;3.90;;;2.28;;
55497;SDS011;41357;52.806;18.268;2023-07-31T05:59:30;6.00;;;2.63;;
55497;SDS011;41357;52.806;18.268;2023-07-31T06:01:58;8.82;;;3.10;;
55497;SDS011;41357;52.806;18.268;2023-07-31T06:04:24;8.35;;;3.50;;
55497;SDS011;41357;52.806;18.268;2023-07-31T06:06:51;5.43;;;3.10;;
55497;SDS011;41357;52.806;18.268;2023-07-31T06:09:17;8.18;;;3.42;;
55497;SDS011;41357;52.806;18.268;2023-07-31T06:11:43;9.18;;;3.38;;
55497;SDS011;41357;52.806;18.268;2023-07-31T06:14:09;6.80;;;2.60;;
55497;SDS011;41357;52.806;18.268;2023-07-31T06:16:35;6.50;;;2.55;;
55497;SDS011;41357;52.806;18.268;2023-07-31T06:19:01;3.60;;;1.80;;
55497;SDS011;41357;52.806;18.268;2023-07-31T06:21:27;6.30;;;1.90;;
55497;SDS011;41357;52.806;18.268;2023-07-31T06:23:54;4.90;;;1.98;;
55497;SDS011;41357;52.806;18.268;2023-07-31T06:26:21;5.68;;;1.65;;
55497;SDS011;41357;52.806;18.268;2023-07-31T06:28:47;4.57;;;1.50;;
55497;SDS011;41357;52.806;18.268;2023-07-31T06:31:16;5.13;;;1.98;;
55497;SDS011;41357;52.806;18.268;2023-07-31T06:33:45;4.30;;;1.80;;
55497;SDS011;41357;52.806;18.268;2023-07-31T06:36:11;4.78;;;2.20;;
55497;SDS011;41357;52.806;18.268;2023-07-31T06:38:37;4.40;;;2.17;;
55497;SDS011;41357;52.806;18.268;2023-07-31T06:41:03;3.67;;;2.40;;
55497;SDS011;41357;52.806;18.268;2023-07-31T06:43:31;4.55;;;2.03;;
55497;SDS011;41357;52.806;18.268;2023-07-31T06:45:57;6.65;;;3.03;;
55497;SDS011;41357;52.806;18.268;2023-07-31T06:48:23;7.43;;;2.67;;
55497;SDS011;41357;52.806;18.268;2023-07-31T06:50:49;2.90;;;1.77;;
55497;SDS011;41357;52.806;18.268;2023-07-31T06:53:15;4.00;;;1.33;;
55497;SDS011;41357;52.806;18.268;2023-07-31T06:55:41;4.43;;;1.77;;
55497;SDS011;41357;52.806;18.268;2023-07-31T06:58:07;3.47;;;1.40;;
55497;SDS011;41357;52.806;18.268;2023-07-31T07:00:33;4.22;;;1.67;;
55497;SDS011;41357;52.806;18.268;2023-07-31T07:03:00;3.95;;;1.83;;
55497;SDS011;41357;52.806;18.268;2023-07-31T07:05:26;5.07;;;1.38;;
55497;SDS011;41357;52.806;18.268;2023-07-31T07:07:52;3.58;;;1.40;;
55497;SDS011;41357;52.806;18.268;2023-07-31T07:10:18;4.65;;;1.85;;
55497;SDS011;41357;52.806;18.268;2023-07-31T07:12:45;6.88;;;1.70;;
55497;SDS011;41357;52.806;18.268;2023-07-31T07:15:12;2.97;;;1.35;;
55497;SDS011;41357;52.806;18.268;2023-07-31T07:17:38;4.28;;;2.10;;
55497;SDS011;41357;52.806;18.268;2023-07-31T07:20:04;3.15;;;1.30;;
55497;SDS011;41357;52.806;18.268;2023-07-31T07:22:30;5.40;;;1.73;;
55497;SDS011;41357;52.806;18.268;2023-07-31T07:24:56;2.97;;;1.42;;
55497;SDS011;41357;52.806;18.268;2023-07-31T07:27:22;3.25;;;1.55;;
55497;SDS011;41357;52.806;18.268;2023-07-31T07:29:50;4.68;;;1.45;;
55497;SDS011;41357;52.806;18.268;2023-07-31T07:32:17;4.40;;;1.38;;
55497;SDS011;41357;52.806;18.268;2023-07-31T07:34:44;13.20;;;1.83;;
55497;SDS011;41357;52.806;18.268;2023-07-31T07:37:10;2.67;;;1.10;;
55497;SDS011;41357;52.806;18.268;2023-07-31T07:39:36;2.40;;;1.05;;
55497;SDS011;41357;52.806;18.268;2023-07-31T07:42:02;4.00;;;1.27;;
55497;SDS011;41357;52.806;18.268;2023-07-31T07:44:28;2.25;;;1.15;;
55497;SDS011;41357;52.806;18.268;2023-07-31T07:46:54;6.50;;;1.25;;
55497;SDS011;41357;52.806;18.268;2023-07-31T07:49:20;3.92;;;1.10;;
55497;SDS011;41357;52.806;18.268;2023-07-31T07:51:49;3.97;;;1.50;;
55497;SDS011;41357;52.806;18.268;2023-07-31T07:54:15;5.70;;;1.40;;
55497;SDS011;41357;52.806;18.268;2023-07-31T07:56:42;3.00;;;1.20;;
55497;SDS011;41357;52.806;18.268;2023-07-31T07:59:08;2.30;;;1.30;;
55497;SDS011;41357;52.806;18.268;2023-07-31T08:01:34;5.10;;;1.15;;
55497;SDS011;41357;52.806;18.268;2023-07-31T08:04:00;3.90;;;1.50;;
55497;SDS011;41357;52.806;18.268;2023-07-31T08:06:27;3.75;;;1.40;;
55497;SDS011;41357;52.806;18.268;2023-07-31T08:08:54;4.68;;;1.90;;
55497;SDS011;41357;52.806;18.268;2023-07-31T08:11:20;4.40;;;1.60;;
55497;SDS011;41357;52.806;18.268;2023-07-31T08:13:48;2.10;;;1.40;;
55497;SDS011;41357;52.806;18.268;2023-07-31T08:16:15;4.18;;;1.80;;
55497;SDS011;41357;52.806;18.268;2023-07-31T08:18:41;5.53;;;1.63;;
55497;SDS011;41357;52.806;18.268;2023-07-31T08:21:10;7.40;;;1.40;;
55497;SDS011;41357;52.806;18.268;2023-07-31T08:23:36;4.80;;;1.30;;
55497;SDS011;41357;52.806;18.268;2023-07-31T08:26:02;3.42;;;1.20;;
55497;SDS011;41357;52.806;18.268;2023-07-31T08:28:28;2.10;;;1.10;;
55497;SDS011;41357;52.806;18.268;2023-07-31T08:30:54;12.95;;;1.90;;
55497;SDS011;41357;52.806;18.268;2023-07-31T08:33:20;5.68;;;1.50;;
55497;SDS011;41357;52.806;18.268;2023-07-31T08:35:49;2.95;;;1.27;;
55497;SDS011;41357;52.806;18.268;2023-07-31T08:38:15;3.30;;;1.20;;
55497;SDS011;41357;52.806;18.268;2023-07-31T08:40:41;4.60;;;1.40;;
55497;SDS011;41357;52.806;18.268;2023-07-31T08:43:08;5.47;;;1.30;;
55497;SDS011;41357;52.806;18.268;2023-07-31T08:45:34;3.08;;;1.55;;
55497;SDS011;41357;52.806;18.268;2023-07-31T08:48:00;4.85;;;1.48;;
55497;SDS011;41357;52.806;18.268;2023-07-31T08:50:26;18.48;;;3.20;;
55497;SDS011;41357;52.806;18.268;2023-07-31T08:52:53;7.32;;;1.50;;
55497;SDS011;41357;52.806;18.268;2023-07-31T08:55:19;5.55;;;1.73;;
55497;SDS011;41357;52.806;18.268;2023-07-31T08:57:50;3.53;;;1.77;;
55497;SDS011;41357;52.806;18.268;2023-07-31T09:00:18;4.00;;;1.85;;
55497;SDS011;41357;52.806;18.268;2023-07-31T09:02:59;4.00;;;1.50;;
55497;SDS011;41357;52.806;18.268;2023-07-31T09:05:28;3.05;;;1.10;;
55497;SDS011;41357;52.806;18.268;2023-07-31T09:07:54;5.22;;;1.63;;
55497;SDS011;41357;52.806;18.268;2023-07-31T09:10:22;2.65;;;1.50;;
55497;SDS011;41357;52.806;18.268;2023-07-31T09:12:49;5.13;;;1.50;;
55497;SDS011;41357;52.806;18.268;2023-07-31T09:15:16;5.13;;;1.98;;
55497;SDS011;41357;52.806;18.268;2023-07-31T09:17:42;10.05;;;1.83;;
55497;SDS011;41357;52.806;18.268;2023-07-31T09:20:18;3.55;;;1.45;;
55497;SDS011;41357;52.806;18.268;2023-07-31T09:22:45;5.03;;;1.50;;
55497;SDS011;41357;52.806;18.268;2023-07-31T09:25:15;2.55;;;1.23;;
55497;SDS011;41357;52.806;18.268;2023-07-31T09:27:57;6.87;;;1.60;;
55497;SDS011;41357;52.806;18.268;2023-07-31T09:30:24;5.72;;;1.60;;
55497;SDS011;41357;52.806;18.268;2023-07-31T09:32:51;5.63;;;1.50;;
55497;SDS011;41357;52.806;18.268;2023-07-31T09:38:12;7.15;;;1.77;;
55497;SDS011;41357;52.806;18.268;2023-07-31T09:40:39;7.88;;;1.98;;
55497;SDS011;41357;52.806;18.268;2023-07-31T09:43:06;5.57;;;1.90;;
55497;SDS011;41357;52.806;18.268;2023-07-31T09:45:40;3.85;;;1.90;;
55497;SDS011;41357;52.806;18.268;2023-07-31T09:48:09;3.58;;;1.58;;
55497;SDS011;41357;52.806;18.268;2023-07-31T09:50:39;3.75;;;1.67;;
55497;SDS011;41357;52.806;18.268;2023-07-31T09:53:06;8.00;;;2.22;;
55497;SDS011;41357;52.806;18.268;2023-07-31T09:55:32;3.97;;;1.50;;
55497;SDS011;41357;52.806;18.268;2023-07-31T09:57:59;3.45;;;1.63;;
55497;SDS011;41357;52.806;18.268;2023-07-31T10:00:25;4.47;;;2.22;;
55497;SDS011;41357;52.806;18.268;2023-07-31T10:02:53;4.68;;;1.83;;
55497;SDS011;41357;52.806;18.268;2023-07-31T10:05:20;6.93;;;1.95;;
55497;SDS011;41357;52.806;18.268;2023-07-31T10:07:56;5.25;;;1.63;;
55497;SDS011;41357;52.806;18.268;2023-07-31T10:10:23;4.25;;;1.73;;
55497;SDS011;41357;52.806;18.268;2023-07-31T10:12:49;5.20;;;1.90;;
55497;SDS011;41357;52.806;18.268;2023-07-31T10:15:16;7.45;;;2.05;;
55497;SDS011;41357;52.806;18.268;2023-07-31T10:17:42;4.82;;;2.10;;
55497;SDS011;41357;52.806;18.268;2023-07-31T10:20:08;3.47;;;2.25;;
55497;SDS011;41357;52.806;18.268;2023-07-31T10:22:35;4.88;;;1.67;;
55497;SDS011;41357;52.806;18.268;2023-07-31T10:25:01;3.65;;;1.67;;
55497;SDS011;41357;52.806;18.268;2023-07-31T10:27:28;6.95;;;2.58;;
55497;SDS011;41357;52.806;18.268;2023-07-31T10:29:54;3.33;;;1.58;;
55497;SDS011;41357;52.806;18.268;2023-07-31T10:32:21;3.58;;;1.77;;
55497;SDS011;41357;52.806;18.268;2023-07-31T10:34:48;7.43;;;1.30;;
55497;SDS011;41357;52.806;18.268;2023-07-31T10:37:22;3.75;;;1.35;;
55497;SDS011;41357;52.806;18.268;2023-07-31T10:40:04;5.35;;;1.20;;
55497;SDS011;41357;52.806;18.268;2023-07-31T10:42:32;7.93;;;1.20;;
55497;SDS011;41357;52.806;18.268;2023-07-31T10:45:00;3.30;;;1.10;;
55497;SDS011;41357;52.806;18.268;2023-07-31T10:47:27;5.60;;;1.83;;
55497;SDS011;41357;52.806;18.268;2023-07-31T10:50:11;4.07;;;1.23;;
55497;SDS011;41357;52.806;18.268;2023-07-31T10:52:38;4.53;;;1.85;;
55497;SDS011;41357;52.806;18.268;2023-07-31T10:55:24;3.17;;;1.27;;
55497;SDS011;41357;52.806;18.268;2023-07-31T10:57:50;3.65;;;1.30;;
55497;SDS011;41357;52.806;18.268;2023-07-31T11:00:21;5.20;;;1.40;;
55497;SDS011;41357;52.806;18.268;2023-07-31T11:05:13;4.90;;;1.20;;
55497;SDS011;41357;52.806;18.268;2023-07-31T11:07:51;2.65;;;1.30;;
55497;SDS011;41357;52.806;18.268;2023-07-31T11:10:33;5.55;;;1.42;;
55497;SDS011;41357;52.806;18.268;2023-07-31T11:12:59;4.72;;;1.45;;
55497;SDS011;41357;52.806;18.268;2023-07-31T11:15:26;3.88;;;1.30;;
55497;SDS011;41357;52.806;18.268;2023-07-31T11:17:52;2.20;;;1.08;;
55497;SDS011;41357;52.806;18.268;2023-07-31T11:20:18;6.07;;;1.50;;
55497;SDS011;41357;52.806;18.268;2023-07-31T11:22:44;2.45;;;1.17;;
55497;SDS011;41357;52.806;18.268;2023-07-31T11:25:10;4.47;;;1.13;;
55497;SDS011;41357;52.806;18.268;2023-07-31T11:27:39;4.05;;;1.17;;
55497;SDS011;41357;52.806;18.268;2023-07-31T11:30:06;5.05;;;1.52;;
55497;SDS011;41357;52.806;18.268;2023-07-31T11:32:32;3.70;;;1.77;;
55497;SDS011;41357;52.806;18.268;2023-07-31T11:34:58;3.13;;;1.13;;
55497;SDS011;41357;52.806;18.268;2023-07-31T11:37:25;3.65;;;1.42;;
55497;SDS011;41357;52.806;18.268;2023-07-31T11:40:04;3.22;;;1.10;;
55497;SDS011;41357;52.806;18.268;2023-07-31T11:42:30;7.13;;;1.48;;
55497;SDS011;41357;52.806;18.268;2023-07-31T11:44:57;3.97;;;1.40;;
55497;SDS011;41357;52.806;18.268;2023-07-31T11:47:23;3.13;;;1.60;;
55497;SDS011;41357;52.806;18.268;2023-07-31T11:49:51;3.17;;;1.35;;
55497;SDS011;41357;52.806;18.268;2023-07-31T11:52:17;4.03;;;1.50;;
55497;SDS011;41357;52.806;18.268;2023-07-31T11:54:45;5.40;;;1.48;;
55497;SDS011;41357;52.806;18.268;2023-07-31T11:57:12;3.20;;;1.70;;
55497;SDS011;41357;52.806;18.268;2023-07-31T11:59:38;4.53;;;1.42;;
55497;SDS011;41357;52.806;18.268;2023-07-31T12:02:05;4.35;;;1.60;;
55497;SDS011;41357;52.806;18.268;2023-07-31T12:04:31;5.47;;;2.35;;
55497;SDS011;41357;52.806;18.268;2023-07-31T12:06:59;4.13;;;2.13;;
55497;SDS011;41357;52.806;18.268;2023-07-31T12:09:26;3.78;;;2.00;;
55497;SDS011;41357;52.806;18.268;2023-07-31T12:11:52;3.63;;;1.48;;
55497;SDS011;41357;52.806;18.268;2023-07-31T12:14:25;3.78;;;1.80;;
55497;SDS011;41357;52.806;18.268;2023-07-31T12:16:55;7.75;;;1.83;;
55497;SDS011;41357;52.806;18.268;2023-07-31T12:19:22;4.55;;;1.52;;
55497;SDS011;41357;52.806;18.268;2023-07-31T12:21:49;5.88;;;2.03;;
55497;SDS011;41357;52.806;18.268;2023-07-31T12:24:17;5.80;;;1.85;;
55497;SDS011;41357;52.806;18.268;2023-07-31T12:26:45;10.30;;;1.85;;
55497;SDS011;41357;52.806;18.268;2023-07-31T12:29:14;6.43;;;1.73;;
55497;SDS011;41357;52.806;18.268;2023-07-31T12:31:41;3.42;;;1.40;;
55497;SDS011;41357;52.806;18.268;2023-07-31T12:34:20;6.38;;;2.50;;
55497;SDS011;41357;52.806;18.268;2023-07-31T12:36:46;5.22;;;1.73;;
55497;SDS011;41357;52.806;18.268;2023-07-31T12:39:15;2.20;;;1.20;;
55497;SDS011;41357;52.806;18.268;2023-07-31T12:41:41;4.00;;;1.60;;
55497;SDS011;41357;52.806;18.268;2023-07-31T12:44:07;3.35;;;2.15;;
55497;SDS011;41357;52.806;18.268;2023-07-31T12:46:35;3.13;;;1.23;;
55497;SDS011;41357;52.806;18.268;2023-07-31T12:49:02;1.67;;;1.40;;
55497;SDS011;41357;52.806;18.268;2023-07-31T12:51:28;5.35;;;1.40;;
55497;SDS011;41357;52.806;18.268;2023-07-31T12:53:54;2.15;;;1.23;;
55497;SDS011;41357;52.806;18.268;2023-07-31T12:56:20;2.92;;;1.25;;
55497;SDS011;41357;52.806;18.268;2023-07-31T12:58:46;1.55;;;1.08;;
55497;SDS011;41357;52.806;18.268;2023-07-31T13:01:13;2.47;;;1.33;;
55497;SDS011;41357;52.806;18.268;2023-07-31T13:03:39;3.90;;;1.20;;
55497;SDS011;41357;52.806;18.268;2023-07-31T13:06:05;2.38;;;1.35;;
55497;SDS011;41357;52.806;18.268;2023-07-31T13:08:31;2.97;;;1.50;;
55497;SDS011;41357;52.806;18.268;2023-07-31T13:10:57;3.28;;;2.00;;
55497;SDS011;41357;52.806;18.268;2023-07-31T13:13:23;2.78;;;1.70;;
55497;SDS011;41357;52.806;18.268;2023-07-31T13:15:49;3.47;;;1.98;;
55497;SDS011;41357;52.806;18.268;2023-07-31T13:18:16;2.22;;;1.48;;
55497;SDS011;41357;52.806;18.268;2023-07-31T13:20:42;3.22;;;1.52;;
55497;SDS011;41357;52.806;18.268;2023-07-31T13:23:08;4.57;;;1.60;;
55497;SDS011;41357;52.806;18.268;2023-07-31T13:25:34;2.85;;;1.10;;
55497;SDS011;41357;52.806;18.268;2023-07-31T13:28:00;3.00;;;1.30;;
55497;SDS011;41357;52.806;18.268;2023-07-31T13:30:26;1.92;;;1.08;;
55497;SDS011;41357;52.806;18.268;2023-07-31T13:32:54;3.25;;;1.30;;
55497;SDS011;41357;52.806;18.268;2023-07-31T13:35:20;3.85;;;1.20;;
55497;SDS011;41357;52.806;18.268;2023-07-31T13:37:46;1.70;;;0.95;;
55497;SDS011;41357;52.806;18.268;2023-07-31T13:40:12;1.70;;;1.30;;
55497;SDS011;41357;52.806;18.268;2023-07-31T13:42:38;5.05;;;1.52;;
55497;SDS011;41357;52.806;18.268;2023-07-31T13:45:04;4.50;;;1.60;;
55497;SDS011;41357;52.806;18.268;2023-07-31T13:47:32;2.55;;;1.33;;
55497;SDS011;41357;52.806;18.268;2023-07-31T13:50:02;3.17;;;1.20;;
55497;SDS011;41357;52.806;18.268;2023-07-31T13:52:28;1.27;;;1.02;;
55497;SDS011;41357;52.806;18.268;2023-07-31T13:54:54;1.67;;;1.08;;
55497;SDS011;41357;52.806;18.268;2023-07-31T13:57:20;2.17;;;1.50;;
55497;SDS011;41357;52.806;18.268;2023-07-31T13:59:46;2.72;;;1.58;;
55497;SDS011;41357;52.806;18.268;2023-07-31T14:02:12;3.33;;;1.27;;
55497;SDS011;41357;52.806;18.268;2023-07-31T14:04:39;2.42;;;1.42;;
55497;SDS011;41357;52.806;18.268;2023-07-31T14:07:06;4.72;;;1.52;;
55497;SDS011;41357;52.806;18.268;2023-07-31T14:09:32;2.88;;;1.60;;
55497;SDS011;41357;52.806;18.268;2023-07-31T14:11:58;1.88;;;1.52;;
55497;SDS011;41357;52.806;18.268;2023-07-31T14:14:24;2.67;;;1.60;;
55497;SDS011;41357;52.806;18.268;2023-07-31T14:16:50;2.45;;;1.30;;
55497;SDS011;41357;52.806;18.268;2023-07-31T14:19:16;1.70;;;1.40;;
55497;SDS011;41357;52.806;18.268;2023-07-31T14:21:42;2.97;;;1.40;;
55497;SDS011;41357;52.806;18.268;2023-07-31T14:24:09;3.53;;;1.33;;
55497;SDS011;41357;52.806;18.268;2023-07-31T14:26:35;4.00;;;1.60;;
55497;SDS011;41357;52.806;18.268;2023-07-31T14:29:01;2.20;;;1.40;;
55497;SDS011;41357;52.806;18.268;2023-07-31T14:31:27;3.20;;;1.83;;
55497;SDS011;41357;52.806;18.268;2023-07-31T14:33:53;3.90;;;1.60;;
55497;SDS011;41357;52.806;18.268;2023-07-31T14:36:19;2.88;;;1.85;;
55497;SDS011;41357;52.806;18.268;2023-07-31T14:38:45;3.72;;;1.58;;
55497;SDS011;41357;52.806;18.268;2023-07-31T14:41:12;2.25;;;1.50;;